sensor_id;sensor_type;location;lat;lon;timestamp;P1;durP1;ratioP1;P2;durP2;ratioP2
19854;SDS011;10088;47.946;2.532;2022-09-03T00:00:13;6.40;;;3.73;;
19854;SDS011;10088;47.946;2.532;2022-09-03T00:02:43;5.40;;;3.70;;
19854;SDS011;10088;47.946;2.532;2022-09-03T00:07:56;7.00;;;3.43;;
19854;SDS011;10088;47.946;2.532;2022-09-03T00:10:28;6.47;;;3.67;;
19854;SDS011;10088;47.946;2.532;2022-09-03T00:12:56;5.03;;;3.40;;
19854;SDS011;10088;47.946;2.532;2022-09-03T00:15:24;4.37;;;3.20;;
19854;SDS011;10088;47.946;2.532;2022-09-03T00:20:19;4.23;;;3.60;;
19854;SDS011;10088;47.946;2.532;2022-09-03T00:22:53;7.33;;;3.50;;
19854;SDS011;10088;47.946;2.532;2022-09-03T00:25:27;4.03;;;2.90;;
19854;SDS011;10088;47.946;2.532;2022-09-03T00:27:53;4.83;;;3.10;;
19854;SDS011;10088;47.946;2.532;2022-09-03T00:30:21;4.70;;;3.13;;
19854;SDS011;10088;47.946;2.532;2022-09-03T00:35:24;3.30;;;2.70;;
19854;SDS011;10088;47.946;2.532;2022-09-03T00:37:51;4.10;;;3.03;;
19854;SDS011;10088;47.946;2.532;2022-09-03T00:40:21;4.43;;;2.80;;
19854;SDS011;10088;47.946;2.532;2022-09-03T00:42:55;6.37;;;3.10;;
19854;SDS011;10088;47.946;2.532;2022-09-03T00:45:31;4.17;;;2.90;;
19854;SDS011;10088;47.946;2.532;2022-09-03T01:00:53;5.30;;;3.47;;
19854;SDS011;10088;47.946;2.532;2022-09-03T01:05:52;3.90;;;3.50;;
19854;SDS011;10088;47.946;2.532;2022-09-03T01:11:05;7.03;;;4.00;;
19854;SDS011;10088;47.946;2.532;2022-09-03T01:13:42;6.20;;;3.50;;
19854;SDS011;10088;47.946;2.532;2022-09-03T01:18:42;4.60;;;4.00;;
19854;SDS011;10088;47.946;2.532;2022-09-03T01:23:51;5.33;;;4.00;;
19854;SDS011;10088;47.946;2.532;2022-09-03T01:37:08;4.77;;;4.37;;
19854;SDS011;10088;47.946;2.532;2022-09-03T01:49:39;6.27;;;4.60;;
19854;SDS011;10088;47.946;2.532;2022-09-03T01:52:11;5.60;;;4.10;;
19854;SDS011;10088;47.946;2.532;2022-09-03T01:57:27;4.53;;;3.77;;
19854;SDS011;10088;47.946;2.532;2022-09-03T02:02:24;4.67;;;4.27;;
19854;SDS011;10088;47.946;2.532;2022-09-03T02:07:26;5.60;;;4.43;;
19854;SDS011;10088;47.946;2.532;2022-09-03T02:09:57;5.33;;;4.40;;
19854;SDS011;10088;47.946;2.532;2022-09-03T02:12:23;6.47;;;4.40;;
19854;SDS011;10088;47.946;2.532;2022-09-03T02:14:48;8.67;;;4.77;;
19854;SDS011;10088;47.946;2.532;2022-09-03T02:17:13;6.13;;;5.10;;
19854;SDS011;10088;47.946;2.532;2022-09-03T02:19:39;8.83;;;4.90;;
19854;SDS011;10088;47.946;2.532;2022-09-03T02:22:04;5.87;;;4.97;;
19854;SDS011;10088;47.946;2.532;2022-09-03T02:24:30;5.90;;;5.30;;
19854;SDS011;10088;47.946;2.532;2022-09-03T02:26:56;5.70;;;5.03;;
19854;SDS011;10088;47.946;2.532;2022-09-03T02:29:21;5.63;;;4.70;;
19854;SDS011;10088;47.946;2.532;2022-09-03T02:31:47;5.87;;;5.03;;
19854;SDS011;10088;47.946;2.532;2022-09-03T02:34:12;5.53;;;5.03;;
19854;SDS011;10088;47.946;2.532;2022-09-03T02:36:42;5.53;;;4.90;;
19854;SDS011;10088;47.946;2.532;2022-09-03T02:39:09;8.07;;;4.77;;
19854;SDS011;10088;47.946;2.532;2022-09-03T02:41:35;5.73;;;5.20;;
19854;SDS011;10088;47.946;2.532;2022-09-03T02:46:40;6.40;;;5.80;;
19854;SDS011;10088;47.946;2.532;2022-09-03T02:49:07;8.03;;;5.70;;
19854;SDS011;10088;47.946;2.532;2022-09-03T02:51:35;7.07;;;5.83;;
19854;SDS011;10088;47.946;2.532;2022-09-03T02:54:01;7.07;;;5.50;;
19854;SDS011;10088;47.946;2.532;2022-09-03T02:56:26;6.63;;;4.97;;
19854;SDS011;10088;47.946;2.532;2022-09-03T02:58:52;6.53;;;5.20;;
19854;SDS011;10088;47.946;2.532;2022-09-03T03:01:18;6.30;;;5.70;;
19854;SDS011;10088;47.946;2.532;2022-09-03T03:03:43;7.63;;;6.90;;
19854;SDS011;10088;47.946;2.532;2022-09-03T03:06:08;8.23;;;7.40;;
19854;SDS011;10088;47.946;2.532;2022-09-03T03:08:34;11.67;;;7.40;;
19854;SDS011;10088;47.946;2.532;2022-09-03T03:10:59;7.90;;;7.10;;
19854;SDS011;10088;47.946;2.532;2022-09-03T03:13:28;8.80;;;7.90;;
19854;SDS011;10088;47.946;2.532;2022-09-03T03:15:55;10.33;;;7.37;;
19854;SDS011;10088;47.946;2.532;2022-09-03T03:18:20;9.73;;;7.93;;
19854;SDS011;10088;47.946;2.532;2022-09-03T03:20:45;8.00;;;7.33;;
19854;SDS011;10088;47.946;2.532;2022-09-03T03:23:12;7.90;;;7.07;;
19854;SDS011;10088;47.946;2.532;2022-09-03T03:25:37;10.93;;;7.30;;
19854;SDS011;10088;47.946;2.532;2022-09-03T03:28:03;11.10;;;6.27;;
19854;SDS011;10088;47.946;2.532;2022-09-03T03:30:29;6.80;;;5.27;;
19854;SDS011;10088;47.946;2.532;2022-09-03T03:32:55;6.30;;;5.20;;
19854;SDS011;10088;47.946;2.532;2022-09-03T03:35:21;5.20;;;4.70;;
19854;SDS011;10088;47.946;2.532;2022-09-03T03:37:46;5.47;;;4.60;;
19854;SDS011;10088;47.946;2.532;2022-09-03T03:40:11;6.53;;;4.40;;
19854;SDS011;10088;47.946;2.532;2022-09-03T03:42:37;8.53;;;5.20;;
19854;SDS011;10088;47.946;2.532;2022-09-03T03:45:02;5.40;;;4.80;;
19854;SDS011;10088;47.946;2.532;2022-09-03T03:47:28;5.20;;;4.17;;
19854;SDS011;10088;47.946;2.532;2022-09-03T03:49:59;7.37;;;4.40;;
19854;SDS011;10088;47.946;2.532;2022-09-03T03:52:25;4.40;;;3.30;;
19854;SDS011;10088;47.946;2.532;2022-09-03T03:54:51;4.10;;;3.73;;
19854;SDS011;10088;47.946;2.532;2022-09-03T03:57:16;4.80;;;3.50;;
19854;SDS011;10088;47.946;2.532;2022-09-03T03:59:43;5.47;;;3.77;;
19854;SDS011;10088;47.946;2.532;2022-09-03T04:02:09;3.97;;;3.40;;
19854;SDS011;10088;47.946;2.532;2022-09-03T04:04:34;5.87;;;3.70;;
19854;SDS011;10088;47.946;2.532;2022-09-03T04:06:59;4.43;;;3.17;;
19854;SDS011;10088;47.946;2.532;2022-09-03T04:09:24;4.23;;;3.43;;
19854;SDS011;10088;47.946;2.532;2022-09-03T04:11:50;3.30;;;3.00;;
19854;SDS011;10088;47.946;2.532;2022-09-03T04:14:15;4.20;;;3.30;;
19854;SDS011;10088;47.946;2.532;2022-09-03T04:16:42;4.10;;;3.07;;
19854;SDS011;10088;47.946;2.532;2022-09-03T04:19:07;7.63;;;3.53;;
19854;SDS011;10088;47.946;2.532;2022-09-03T04:21:32;4.90;;;3.00;;
19854;SDS011;10088;47.946;2.532;2022-09-03T04:23:58;5.50;;;3.60;;
19854;SDS011;10088;47.946;2.532;2022-09-03T04:26:24;6.67;;;3.60;;
19854;SDS011;10088;47.946;2.532;2022-09-03T04:28:50;4.47;;;3.37;;
19854;SDS011;10088;47.946;2.532;2022-09-03T04:31:16;4.60;;;3.67;;
19854;SDS011;10088;47.946;2.532;2022-09-03T04:33:42;5.10;;;3.27;;
19854;SDS011;10088;47.946;2.532;2022-09-03T04:36:08;6.13;;;3.93;;
19854;SDS011;10088;47.946;2.532;2022-09-03T04:38:34;5.40;;;3.30;;
19854;SDS011;10088;47.946;2.532;2022-09-03T04:41:00;4.87;;;3.30;;
19854;SDS011;10088;47.946;2.532;2022-09-03T04:43:26;7.30;;;3.77;;
19854;SDS011;10088;47.946;2.532;2022-09-03T04:45:54;11.17;;;4.00;;
19854;SDS011;10088;47.946;2.532;2022-09-03T04:48:20;5.50;;;4.00;;
19854;SDS011;10088;47.946;2.532;2022-09-03T04:50:45;5.83;;;3.73;;
19854;SDS011;10088;47.946;2.532;2022-09-03T04:53:10;8.50;;;4.50;;
19854;SDS011;10088;47.946;2.532;2022-09-03T04:55:36;4.43;;;3.77;;
19854;SDS011;10088;47.946;2.532;2022-09-03T04:58:02;5.43;;;3.97;;
19854;SDS011;10088;47.946;2.532;2022-09-03T05:00:27;8.53;;;3.97;;
19854;SDS011;10088;47.946;2.532;2022-09-03T05:02:53;6.70;;;4.30;;
19854;SDS011;10088;47.946;2.532;2022-09-03T05:05:18;4.80;;;4.27;;
19854;SDS011;10088;47.946;2.532;2022-09-03T05:07:43;4.97;;;4.03;;
19854;SDS011;10088;47.946;2.532;2022-09-03T05:10:09;7.83;;;4.40;;
19854;SDS011;10088;47.946;2.532;2022-09-03T05:12:44;8.80;;;4.40;;
19854;SDS011;10088;47.946;2.532;2022-09-03T05:15:09;5.30;;;4.60;;
19854;SDS011;10088;47.946;2.532;2022-09-03T05:17:35;5.47;;;4.47;;
19854;SDS011;10088;47.946;2.532;2022-09-03T05:20:02;6.33;;;4.67;;
19854;SDS011;10088;47.946;2.532;2022-09-03T05:22:28;8.37;;;4.77;;
19854;SDS011;10088;47.946;2.532;2022-09-03T05:24:53;6.60;;;4.80;;
19854;SDS011;10088;47.946;2.532;2022-09-03T05:27:20;5.07;;;4.63;;
19854;SDS011;10088;47.946;2.532;2022-09-03T05:29:45;7.10;;;5.37;;
19854;SDS011;10088;47.946;2.532;2022-09-03T05:32:11;10.77;;;5.20;;
19854;SDS011;10088;47.946;2.532;2022-09-03T05:34:41;5.80;;;4.73;;
19854;SDS011;10088;47.946;2.532;2022-09-03T05:37:06;7.53;;;4.77;;
19854;SDS011;10088;47.946;2.532;2022-09-03T05:39:31;6.67;;;4.97;;
19854;SDS011;10088;47.946;2.532;2022-09-03T05:41:57;11.77;;;5.13;;
19854;SDS011;10088;47.946;2.532;2022-09-03T05:44:22;10.10;;;5.43;;
19854;SDS011;10088;47.946;2.532;2022-09-03T05:46:48;5.63;;;5.10;;
19854;SDS011;10088;47.946;2.532;2022-09-03T05:49:15;9.07;;;5.43;;
19854;SDS011;10088;47.946;2.532;2022-09-03T05:51:40;7.70;;;5.90;;
19854;SDS011;10088;47.946;2.532;2022-09-03T05:54:07;5.03;;;4.63;;
19854;SDS011;10088;47.946;2.532;2022-09-03T05:56:32;10.83;;;5.73;;
19854;SDS011;10088;47.946;2.532;2022-09-03T05:59:01;8.70;;;5.73;;
19854;SDS011;10088;47.946;2.532;2022-09-03T06:01:40;7.70;;;5.47;;
19854;SDS011;10088;47.946;2.532;2022-09-03T06:04:10;8.10;;;5.07;;
19854;SDS011;10088;47.946;2.532;2022-09-03T06:06:37;8.50;;;5.20;;
19854;SDS011;10088;47.946;2.532;2022-09-03T06:09:03;6.87;;;4.93;;
19854;SDS011;10088;47.946;2.532;2022-09-03T06:11:30;7.50;;;5.57;;
19854;SDS011;10088;47.946;2.532;2022-09-03T06:13:56;8.57;;;5.17;;
19854;SDS011;10088;47.946;2.532;2022-09-03T06:16:22;6.00;;;4.90;;
19854;SDS011;10088;47.946;2.532;2022-09-03T06:18:48;10.60;;;5.30;;
19854;SDS011;10088;47.946;2.532;2022-09-03T06:21:13;5.03;;;4.53;;
19854;SDS011;10088;47.946;2.532;2022-09-03T06:23:39;7.83;;;5.30;;
19854;SDS011;10088;47.946;2.532;2022-09-03T06:26:08;5.83;;;4.20;;
19854;SDS011;10088;47.946;2.532;2022-09-03T06:28:34;7.17;;;4.50;;
19854;SDS011;10088;47.946;2.532;2022-09-03T06:31:04;6.47;;;4.17;;
19854;SDS011;10088;47.946;2.532;2022-09-03T06:33:30;8.67;;;4.57;;
19854;SDS011;10088;47.946;2.532;2022-09-03T06:35:56;7.53;;;3.90;;
19854;SDS011;10088;47.946;2.532;2022-09-03T06:38:22;7.57;;;4.10;;
19854;SDS011;10088;47.946;2.532;2022-09-03T06:40:55;8.00;;;3.70;;
19854;SDS011;10088;47.946;2.532;2022-09-03T06:43:21;6.80;;;4.47;;
19854;SDS011;10088;47.946;2.532;2022-09-03T06:45:57;7.73;;;4.17;;
19854;SDS011;10088;47.946;2.532;2022-09-03T06:48:22;6.00;;;4.37;;
19854;SDS011;10088;47.946;2.532;2022-09-03T06:53:26;6.83;;;4.10;;
19854;SDS011;10088;47.946;2.532;2022-09-03T06:56:02;7.10;;;4.10;;
19854;SDS011;10088;47.946;2.532;2022-09-03T06:58:28;6.20;;;4.10;;
19854;SDS011;10088;47.946;2.532;2022-09-03T07:00:59;4.83;;;3.67;;
19854;SDS011;10088;47.946;2.532;2022-09-03T07:03:25;8.60;;;3.77;;
19854;SDS011;10088;47.946;2.532;2022-09-03T07:05:50;3.83;;;3.37;;
19854;SDS011;10088;47.946;2.532;2022-09-03T07:08:15;4.20;;;3.10;;
19854;SDS011;10088;47.946;2.532;2022-09-03T07:10:44;5.30;;;3.40;;
19854;SDS011;10088;47.946;2.532;2022-09-03T07:13:10;7.03;;;3.10;;
19854;SDS011;10088;47.946;2.532;2022-09-03T07:15:36;5.73;;;3.20;;
19854;SDS011;10088;47.946;2.532;2022-09-03T07:18:01;6.00;;;3.20;;
19854;SDS011;10088;47.946;2.532;2022-09-03T07:20:26;8.30;;;3.43;;
19854;SDS011;10088;47.946;2.532;2022-09-03T07:22:55;7.43;;;3.17;;
19854;SDS011;10088;47.946;2.532;2022-09-03T07:25:21;3.97;;;2.57;;
19854;SDS011;10088;47.946;2.532;2022-09-03T07:27:46;8.13;;;3.40;;
19854;SDS011;10088;47.946;2.532;2022-09-03T07:30:12;4.93;;;2.50;;
19854;SDS011;10088;47.946;2.532;2022-09-03T07:32:37;5.00;;;2.73;;
19854;SDS011;10088;47.946;2.532;2022-09-03T07:35:05;3.33;;;1.90;;
19854;SDS011;10088;47.946;2.532;2022-09-03T07:37:30;3.40;;;2.50;;
19854;SDS011;10088;47.946;2.532;2022-09-03T07:39:56;5.60;;;2.70;;
19854;SDS011;10088;47.946;2.532;2022-09-03T07:42:22;4.13;;;2.47;;
19854;SDS011;10088;47.946;2.532;2022-09-03T07:44:47;4.37;;;2.60;;
19854;SDS011;10088;47.946;2.532;2022-09-03T07:47:12;3.80;;;3.10;;
19854;SDS011;10088;47.946;2.532;2022-09-03T07:49:39;5.33;;;3.30;;
19854;SDS011;10088;47.946;2.532;2022-09-03T07:52:04;3.40;;;3.10;;
19854;SDS011;10088;47.946;2.532;2022-09-03T07:54:29;3.67;;;3.00;;
19854;SDS011;10088;47.946;2.532;2022-09-03T07:56:55;3.60;;;2.70;;
19854;SDS011;10088;47.946;2.532;2022-09-03T07:59:21;5.27;;;2.77;;
19854;SDS011;10088;47.946;2.532;2022-09-03T08:01:47;6.00;;;2.80;;
19854;SDS011;10088;47.946;2.532;2022-09-03T08:04:13;4.83;;;3.07;;
19854;SDS011;10088;47.946;2.532;2022-09-03T08:06:38;5.07;;;3.33;;
19854;SDS011;10088;47.946;2.532;2022-09-03T08:09:05;3.43;;;3.00;;
19854;SDS011;10088;47.946;2.532;2022-09-03T08:11:31;5.40;;;3.10;;
19854;SDS011;10088;47.946;2.532;2022-09-03T08:13:58;4.63;;;2.80;;
19854;SDS011;10088;47.946;2.532;2022-09-03T08:16:25;4.23;;;2.70;;
19854;SDS011;10088;47.946;2.532;2022-09-03T08:18:51;3.27;;;2.33;;
19854;SDS011;10088;47.946;2.532;2022-09-03T08:21:17;4.30;;;2.40;;
19854;SDS011;10088;47.946;2.532;2022-09-03T08:23:44;3.83;;;2.43;;
19854;SDS011;10088;47.946;2.532;2022-09-03T08:26:09;2.80;;;2.30;;
19854;SDS011;10088;47.946;2.532;2022-09-03T08:28:35;4.37;;;2.00;;
19854;SDS011;10088;47.946;2.532;2022-09-03T08:33:35;3.97;;;1.80;;
19854;SDS011;10088;47.946;2.532;2022-09-03T08:36:04;4.13;;;2.13;;
19854;SDS011;10088;47.946;2.532;2022-09-03T08:38:31;5.60;;;2.20;;
19854;SDS011;10088;47.946;2.532;2022-09-03T08:41:03;6.20;;;2.07;;
19854;SDS011;10088;47.946;2.532;2022-09-03T08:43:29;3.37;;;2.20;;
19854;SDS011;10088;47.946;2.532;2022-09-03T08:45:54;3.40;;;2.03;;
19854;SDS011;10088;47.946;2.532;2022-09-03T08:48:20;2.77;;;1.90;;
19854;SDS011;10088;47.946;2.532;2022-09-03T08:50:48;4.87;;;1.80;;
19854;SDS011;10088;47.946;2.532;2022-09-03T08:53:23;5.27;;;2.10;;
19854;SDS011;10088;47.946;2.532;2022-09-03T08:55:54;4.30;;;2.57;;
19854;SDS011;10088;47.946;2.532;2022-09-03T08:58:26;3.20;;;1.80;;
19854;SDS011;10088;47.946;2.532;2022-09-03T09:11:07;3.50;;;2.10;;
19854;SDS011;10088;47.946;2.532;2022-09-03T09:16:18;4.13;;;1.80;;
19854;SDS011;10088;47.946;2.532;2022-09-03T09:21:27;3.70;;;1.90;;
19854;SDS011;10088;47.946;2.532;2022-09-03T09:23:52;2.63;;;1.63;;
19854;SDS011;10088;47.946;2.532;2022-09-03T09:26:19;3.83;;;1.33;;
19854;SDS011;10088;47.946;2.532;2022-09-03T09:28:46;5.00;;;1.47;;
19854;SDS011;10088;47.946;2.532;2022-09-03T09:31:14;8.27;;;1.50;;
19854;SDS011;10088;47.946;2.532;2022-09-03T09:34:05;6.50;;;1.30;;
19854;SDS011;10088;47.946;2.532;2022-09-03T09:36:50;1.53;;;1.00;;
19854;SDS011;10088;47.946;2.532;2022-09-03T09:39:21;3.53;;;1.50;;
19854;SDS011;10088;47.946;2.532;2022-09-03T09:41:59;1.97;;;1.40;;
19854;SDS011;10088;47.946;2.532;2022-09-03T09:44:44;2.93;;;1.50;;
19854;SDS011;10088;47.946;2.532;2022-09-03T09:47:12;2.33;;;1.40;;
19854;SDS011;10088;47.946;2.532;2022-09-03T09:52:20;2.67;;;1.10;;
19854;SDS011;10088;47.946;2.532;2022-09-03T09:55:08;2.53;;;1.10;;
19854;SDS011;10088;47.946;2.532;2022-09-03T09:57:45;4.67;;;1.20;;
19854;SDS011;10088;47.946;2.532;2022-09-03T10:00:20;2.03;;;1.63;;
19854;SDS011;10088;47.946;2.532;2022-09-03T10:02:54;2.40;;;1.20;;
19854;SDS011;10088;47.946;2.532;2022-09-03T10:05:37;1.90;;;1.10;;
19854;SDS011;10088;47.946;2.532;2022-09-03T10:08:19;1.20;;;0.87;;
19854;SDS011;10088;47.946;2.532;2022-09-03T10:11:07;1.57;;;0.63;;
19854;SDS011;10088;47.946;2.532;2022-09-03T10:14:01;1.00;;;0.70;;
19854;SDS011;10088;47.946;2.532;2022-09-03T10:16:32;1.67;;;0.60;;
19854;SDS011;10088;47.946;2.532;2022-09-03T10:22:11;1.73;;;0.80;;
19854;SDS011;10088;47.946;2.532;2022-09-03T10:24:57;1.73;;;0.80;;
19854;SDS011;10088;47.946;2.532;2022-09-03T10:27:24;2.97;;;0.93;;
19854;SDS011;10088;47.946;2.532;2022-09-03T10:30:08;3.47;;;0.90;;
19854;SDS011;10088;47.946;2.532;2022-09-03T10:33:04;2.80;;;0.67;;
19854;SDS011;10088;47.946;2.532;2022-09-03T10:35:51;1.17;;;0.87;;
19854;SDS011;10088;47.946;2.532;2022-09-03T10:38:37;1.63;;;1.07;;
19854;SDS011;10088;47.946;2.532;2022-09-03T10:46:26;1.20;;;1.10;;
19854;SDS011;10088;47.946;2.532;2022-09-03T10:59:38;1.37;;;1.10;;
19854;SDS011;10088;47.946;2.532;2022-09-03T11:02:18;1.30;;;0.70;;
19854;SDS011;10088;47.946;2.532;2022-09-03T11:08:08;1.73;;;0.90;;
19854;SDS011;10088;47.946;2.532;2022-09-03T11:10:27;3.97;;;0.90;;
19854;SDS011;10088;47.946;2.532;2022-09-03T11:13:07;2.60;;;0.90;;
19854;SDS011;10088;47.946;2.532;2022-09-03T11:15:35;1.40;;;0.73;;
19854;SDS011;10088;47.946;2.532;2022-09-03T11:20:50;1.70;;;0.90;;
19854;SDS011;10088;47.946;2.532;2022-09-03T11:23:23;1.73;;;0.60;;
19854;SDS011;10088;47.946;2.532;2022-09-03T11:25:53;2.17;;;0.80;;
19854;SDS011;10088;47.946;2.532;2022-09-03T11:28:32;2.73;;;0.77;;
19854;SDS011;10088;47.946;2.532;2022-09-03T11:33:30;2.30;;;0.70;;
19854;SDS011;10088;47.946;2.532;2022-09-03T11:36:04;1.30;;;0.70;;
19854;SDS011;10088;47.946;2.532;2022-09-03T11:38:35;1.37;;;0.67;;
19854;SDS011;10088;47.946;2.532;2022-09-03T11:41:10;0.83;;;0.70;;
19854;SDS011;10088;47.946;2.532;2022-09-03T11:43:42;2.03;;;0.80;;
19854;SDS011;10088;47.946;2.532;2022-09-03T11:48:40;1.30;;;0.70;;
19854;SDS011;10088;47.946;2.532;2022-09-03T11:51:19;1.17;;;0.80;;
19854;SDS011;10088;47.946;2.532;2022-09-03T11:56:42;1.73;;;1.10;;
19854;SDS011;10088;47.946;2.532;2022-09-03T12:01:39;2.00;;;0.70;;
19854;SDS011;10088;47.946;2.532;2022-09-03T12:04:12;1.20;;;0.73;;
19854;SDS011;10088;47.946;2.532;2022-09-03T12:22:13;0.50;;;0.50;;
19854;SDS011;10088;47.946;2.532;2022-09-03T12:24:43;0.90;;;0.70;;
19854;SDS011;10088;47.946;2.532;2022-09-03T12:27:24;3.40;;;0.90;;
19854;SDS011;10088;47.946;2.532;2022-09-03T12:29:57;0.70;;;0.60;;
19854;SDS011;10088;47.946;2.532;2022-09-03T12:32:37;1.50;;;0.60;;
19854;SDS011;10088;47.946;2.532;2022-09-03T12:35:11;1.13;;;0.80;;
19854;SDS011;10088;47.946;2.532;2022-09-03T12:37:40;1.67;;;0.80;;
19854;SDS011;10088;47.946;2.532;2022-09-03T12:40:22;1.83;;;0.80;;
19854;SDS011;10088;47.946;2.532;2022-09-03T12:42:53;1.00;;;0.70;;
19854;SDS011;10088;47.946;2.532;2022-09-03T12:45:21;1.47;;;0.63;;
19854;SDS011;10088;47.946;2.532;2022-09-03T12:47:49;1.43;;;0.80;;
19854;SDS011;10088;47.946;2.532;2022-09-03T12:50:19;1.70;;;0.80;;
19854;SDS011;10088;47.946;2.532;2022-09-03T12:52:52;2.20;;;0.80;;
19854;SDS011;10088;47.946;2.532;2022-09-03T12:55:37;3.83;;;1.10;;
19854;SDS011;10088;47.946;2.532;2022-09-03T12:58:15;1.30;;;0.80;;
19854;SDS011;10088;47.946;2.532;2022-09-03T13:01:28;3.40;;;0.97;;
19854;SDS011;10088;47.946;2.532;2022-09-03T13:05:53;1.37;;;0.70;;
19854;SDS011;10088;47.946;2.532;2022-09-03T13:08:24;2.07;;;0.90;;
19854;SDS011;10088;47.946;2.532;2022-09-03T13:10:51;1.27;;;0.70;;
19854;SDS011;10088;47.946;2.532;2022-09-03T13:26:39;1.10;;;0.80;;
19854;SDS011;10088;47.946;2.532;2022-09-03T13:31:45;1.20;;;0.80;;
19854;SDS011;10088;47.946;2.532;2022-09-03T13:34:32;1.63;;;1.00;;
19854;SDS011;10088;47.946;2.532;2022-09-03T13:39:38;1.57;;;0.83;;
19854;SDS011;10088;47.946;2.532;2022-09-03T13:42:06;3.60;;;1.00;;
19854;SDS011;10088;47.946;2.532;2022-09-03T13:44:47;1.03;;;0.80;;
19854;SDS011;10088;47.946;2.532;2022-09-03T13:50:02;2.23;;;0.80;;
19854;SDS011;10088;47.946;2.532;2022-09-03T13:52:57;2.50;;;0.80;;
19854;SDS011;10088;47.946;2.532;2022-09-03T13:55:40;1.00;;;0.90;;
19854;SDS011;10088;47.946;2.532;2022-09-03T13:58:10;1.27;;;0.80;;
19854;SDS011;10088;47.946;2.532;2022-09-03T14:00:42;2.60;;;1.00;;
19854;SDS011;10088;47.946;2.532;2022-09-03T14:14:05;1.50;;;0.90;;
19854;SDS011;10088;47.946;2.532;2022-09-03T14:16:46;1.27;;;0.90;;
19854;SDS011;10088;47.946;2.532;2022-09-03T14:21:59;1.13;;;1.03;;
19854;SDS011;10088;47.946;2.532;2022-09-03T14:24:27;4.30;;;1.00;;
19854;SDS011;10088;47.946;2.532;2022-09-03T14:26:56;16.33;;;5.07;;
19854;SDS011;10088;47.946;2.532;2022-09-03T14:29:29;3.47;;;1.20;;
19854;SDS011;10088;47.946;2.532;2022-09-03T14:40:12;1.60;;;0.90;;
19854;SDS011;10088;47.946;2.532;2022-09-03T14:45:27;1.60;;;1.10;;
19854;SDS011;10088;47.946;2.532;2022-09-03T14:50:56;1.47;;;1.03;;
19854;SDS011;10088;47.946;2.532;2022-09-03T15:11:54;1.23;;;1.00;;
19854;SDS011;10088;47.946;2.532;2022-09-03T15:14:25;1.30;;;1.10;;
19854;SDS011;10088;47.946;2.532;2022-09-03T15:16:59;2.07;;;1.30;;
19854;SDS011;10088;47.946;2.532;2022-09-03T15:32:39;3.07;;;1.10;;
19854;SDS011;10088;47.946;2.532;2022-09-03T15:42:44;1.17;;;0.80;;
19854;SDS011;10088;47.946;2.532;2022-09-03T15:45:28;1.43;;;1.00;;
19854;SDS011;10088;47.946;2.532;2022-09-03T15:48:00;2.17;;;0.90;;
19854;SDS011;10088;47.946;2.532;2022-09-03T15:50:34;2.37;;;1.10;;
19854;SDS011;10088;47.946;2.532;2022-09-03T15:55:38;2.57;;;1.53;;
19854;SDS011;10088;47.946;2.532;2022-09-03T16:00:53;3.07;;;1.27;;
19854;SDS011;10088;47.946;2.532;2022-09-03T16:06:17;1.70;;;1.00;;
19854;SDS011;10088;47.946;2.532;2022-09-03T16:08:47;3.43;;;1.10;;
19854;SDS011;10088;47.946;2.532;2022-09-03T16:13:54;1.87;;;0.97;;
19854;SDS011;10088;47.946;2.532;2022-09-03T16:19:13;1.90;;;1.03;;
19854;SDS011;10088;47.946;2.532;2022-09-03T17:08:47;3.57;;;1.27;;
19854;SDS011;10088;47.946;2.532;2022-09-03T17:11:20;2.97;;;1.47;;
19854;SDS011;10088;47.946;2.532;2022-09-03T17:13:53;1.83;;;1.10;;
19854;SDS011;10088;47.946;2.532;2022-09-03T17:32:21;1.80;;;1.20;;
19854;SDS011;10088;47.946;2.532;2022-09-03T17:50:43;3.03;;;1.40;;
19854;SDS011;10088;47.946;2.532;2022-09-03T17:53:15;2.87;;;1.53;;
19854;SDS011;10088;47.946;2.532;2022-09-03T17:58:42;1.40;;;1.20;;
19854;SDS011;10088;47.946;2.532;2022-09-03T18:01:17;3.50;;;1.70;;
19854;SDS011;10088;47.946;2.532;2022-09-03T18:06:31;1.60;;;1.20;;
19854;SDS011;10088;47.946;2.532;2022-09-03T18:11:36;2.00;;;1.30;;
19854;SDS011;10088;47.946;2.532;2022-09-03T18:22:25;1.50;;;1.40;;
19854;SDS011;10088;47.946;2.532;2022-09-03T18:25:13;3.40;;;1.30;;
19854;SDS011;10088;47.946;2.532;2022-09-03T18:28:05;2.57;;;1.60;;
19854;SDS011;10088;47.946;2.532;2022-09-03T18:30:57;4.50;;;1.77;;
19854;SDS011;10088;47.946;2.532;2022-09-03T18:33:56;1.70;;;1.40;;
19854;SDS011;10088;47.946;2.532;2022-09-03T18:36:43;2.70;;;1.70;;
19854;SDS011;10088;47.946;2.532;2022-09-03T18:39:36;5.10;;;1.57;;
19854;SDS011;10088;47.946;2.532;2022-09-03T18:45:41;8.37;;;1.97;;
19854;SDS011;10088;47.946;2.532;2022-09-03T18:51:36;2.40;;;1.70;;
19854;SDS011;10088;47.946;2.532;2022-09-03T18:54:31;2.67;;;2.00;;
19854;SDS011;10088;47.946;2.532;2022-09-03T18:57:22;4.27;;;1.60;;
19854;SDS011;10088;47.946;2.532;2022-09-03T19:00:13;4.63;;;1.83;;
19854;SDS011;10088;47.946;2.532;2022-09-03T19:09:00;3.97;;;2.03;;
19854;SDS011;10088;47.946;2.532;2022-09-03T19:17:51;4.30;;;1.80;;
19854;SDS011;10088;47.946;2.532;2022-09-03T19:20:37;2.30;;;2.10;;
19854;SDS011;10088;47.946;2.532;2022-09-03T19:23:24;4.13;;;2.27;;
19854;SDS011;10088;47.946;2.532;2022-09-03T19:29:19;4.20;;;2.20;;
19854;SDS011;10088;47.946;2.532;2022-09-03T19:32:08;4.40;;;2.20;;
19854;SDS011;10088;47.946;2.532;2022-09-03T19:40:33;3.43;;;2.03;;
19854;SDS011;10088;47.946;2.532;2022-09-03T19:43:28;4.33;;;2.17;;
19854;SDS011;10088;47.946;2.532;2022-09-03T19:46:32;1.97;;;1.77;;
19854;SDS011;10088;47.946;2.532;2022-09-03T19:55:03;6.37;;;2.67;;
19854;SDS011;10088;47.946;2.532;2022-09-03T19:57:49;3.37;;;2.13;;
19854;SDS011;10088;47.946;2.532;2022-09-03T20:00:36;2.60;;;1.87;;
19854;SDS011;10088;47.946;2.532;2022-09-03T20:03:20;2.83;;;2.00;;
19854;SDS011;10088;47.946;2.532;2022-09-03T20:06:04;3.37;;;1.87;;
19854;SDS011;10088;47.946;2.532;2022-09-03T20:08:49;4.87;;;2.10;;
19854;SDS011;10088;47.946;2.532;2022-09-03T20:11:34;3.80;;;2.60;;
19854;SDS011;10088;47.946;2.532;2022-09-03T20:14:00;2.57;;;2.17;;
19854;SDS011;10088;47.946;2.532;2022-09-03T20:19:56;4.23;;;2.37;;
19854;SDS011;10088;47.946;2.532;2022-09-03T20:30:07;4.47;;;2.80;;
19854;SDS011;10088;47.946;2.532;2022-09-03T20:35:19;4.83;;;2.60;;
19854;SDS011;10088;47.946;2.532;2022-09-03T20:37:55;3.13;;;2.60;;
19854;SDS011;10088;47.946;2.532;2022-09-03T20:40:28;4.03;;;2.40;;
19854;SDS011;10088;47.946;2.532;2022-09-03T20:43:02;2.70;;;2.50;;
19854;SDS011;10088;47.946;2.532;2022-09-03T20:55:49;4.23;;;2.43;;
19854;SDS011;10088;47.946;2.532;2022-09-03T20:58:36;5.33;;;2.60;;
19854;SDS011;10088;47.946;2.532;2022-09-03T21:01:04;6.07;;;2.33;;
19854;SDS011;10088;47.946;2.532;2022-09-03T21:09:00;4.03;;;2.50;;
19854;SDS011;10088;47.946;2.532;2022-09-03T21:16:31;6.83;;;3.00;;
19854;SDS011;10088;47.946;2.532;2022-09-03T21:24:17;3.93;;;2.63;;
19854;SDS011;10088;47.946;2.532;2022-09-03T21:26:44;5.93;;;2.40;;
19854;SDS011;10088;47.946;2.532;2022-09-03T21:29:16;5.90;;;2.83;;
19854;SDS011;10088;47.946;2.532;2022-09-03T21:31:53;2.77;;;2.37;;
19854;SDS011;10088;47.946;2.532;2022-09-03T21:34:28;3.00;;;2.60;;
19854;SDS011;10088;47.946;2.532;2022-09-03T21:36:53;3.50;;;2.50;;
19854;SDS011;10088;47.946;2.532;2022-09-03T21:39:23;4.97;;;2.70;;
19854;SDS011;10088;47.946;2.532;2022-09-03T21:44:44;3.13;;;2.40;;
19854;SDS011;10088;47.946;2.532;2022-09-03T21:47:14;5.33;;;2.67;;
19854;SDS011;10088;47.946;2.532;2022-09-03T21:52:32;4.13;;;2.97;;
19854;SDS011;10088;47.946;2.532;2022-09-03T21:55:02;5.77;;;2.80;;
19854;SDS011;10088;47.946;2.532;2022-09-03T21:57:31;4.73;;;2.57;;
19854;SDS011;10088;47.946;2.532;2022-09-03T22:00:11;4.40;;;2.90;;
19854;SDS011;10088;47.946;2.532;2022-09-03T22:02:36;4.17;;;2.23;;
19854;SDS011;10088;47.946;2.532;2022-09-03T22:05:02;4.27;;;2.87;;